sensor_id;sensor_type;location;lat;lon;timestamp;P1;durP1;ratioP1;P2;durP2;ratioP2
57820;SDS011;43649;49.474;8.466;2022-07-10T00:02:07;4.88;;;4.32;;
57820;SDS011;43649;49.474;8.466;2022-07-10T00:04:32;7.38;;;5.13;;
57820;SDS011;43649;49.474;8.466;2022-07-10T00:06:58;4.97;;;4.43;;
57820;SDS011;43649;49.474;8.466;2022-07-10T00:09:23;6.80;;;3.88;;
57820;SDS011;43649;49.474;8.466;2022-07-10T00:11:49;6.43;;;4.18;;
57820;SDS011;43649;49.474;8.466;2022-07-10T00:14:14;9.23;;;3.97;;
57820;SDS011;43649;49.474;8.466;2022-07-10T00:16:41;7.00;;;4.07;;
57820;SDS011;43649;49.474;8.466;2022-07-10T00:19:07;9.13;;;4.43;;
57820;SDS011;43649;49.474;8.466;2022-07-10T00:21:32;3.33;;;2.92;;
57820;SDS011;43649;49.474;8.466;2022-07-10T00:23:58;6.40;;;3.22;;
57820;SDS011;43649;49.474;8.466;2022-07-10T00:26:23;3.30;;;3.00;;
57820;SDS011;43649;49.474;8.466;2022-07-10T00:28:49;6.55;;;3.55;;
57820;SDS011;43649;49.474;8.466;2022-07-10T00:31:14;2.92;;;2.58;;
57820;SDS011;43649;49.474;8.466;2022-07-10T00:33:41;3.65;;;2.95;;
57820;SDS011;43649;49.474;8.466;2022-07-10T00:36:07;3.50;;;2.60;;
57820;SDS011;43649;49.474;8.466;2022-07-10T00:38:32;4.68;;;2.47;;
57820;SDS011;43649;49.474;8.466;2022-07-10T00:40:57;8.38;;;2.80;;
57820;SDS011;43649;49.474;8.466;2022-07-10T00:43:23;3.35;;;2.35;;
57820;SDS011;43649;49.474;8.466;2022-07-10T00:45:49;3.13;;;2.47;;
57820;SDS011;43649;49.474;8.466;2022-07-10T00:48:14;6.95;;;2.30;;
57820;SDS011;43649;49.474;8.466;2022-07-10T00:50:42;2.70;;;2.33;;
57820;SDS011;43649;49.474;8.466;2022-07-10T00:53:10;4.32;;;2.40;;
57820;SDS011;43649;49.474;8.466;2022-07-10T00:55:36;3.25;;;2.65;;
57820;SDS011;43649;49.474;8.466;2022-07-10T00:58:04;3.35;;;1.80;;
57820;SDS011;43649;49.474;8.466;2022-07-10T01:00:31;2.70;;;2.05;;
57820;SDS011;43649;49.474;8.466;2022-07-10T01:02:58;5.30;;;2.50;;
57820;SDS011;43649;49.474;8.466;2022-07-10T01:05:23;5.53;;;2.08;;
57820;SDS011;43649;49.474;8.466;2022-07-10T01:07:50;3.25;;;2.00;;
57820;SDS011;43649;49.474;8.466;2022-07-10T01:10:16;2.17;;;2.00;;
57820;SDS011;43649;49.474;8.466;2022-07-10T01:12:42;7.55;;;2.20;;
57820;SDS011;43649;49.474;8.466;2022-07-10T01:15:08;3.20;;;2.13;;
57820;SDS011;43649;49.474;8.466;2022-07-10T01:17:34;3.00;;;1.80;;
57820;SDS011;43649;49.474;8.466;2022-07-10T01:20:03;2.95;;;2.15;;
57820;SDS011;43649;49.474;8.466;2022-07-10T01:22:31;2.92;;;1.92;;
57820;SDS011;43649;49.474;8.466;2022-07-10T01:24:56;3.33;;;1.67;;
57820;SDS011;43649;49.474;8.466;2022-07-10T01:27:22;8.50;;;2.05;;
57820;SDS011;43649;49.474;8.466;2022-07-10T01:29:47;7.53;;;2.35;;
57820;SDS011;43649;49.474;8.466;2022-07-10T01:32:13;4.78;;;2.47;;
57820;SDS011;43649;49.474;8.466;2022-07-10T01:34:39;3.08;;;2.20;;
57820;SDS011;43649;49.474;8.466;2022-07-10T01:37:04;4.68;;;2.15;;
57820;SDS011;43649;49.474;8.466;2022-07-10T01:39:31;3.35;;;1.80;;
57820;SDS011;43649;49.474;8.466;2022-07-10T01:41:57;4.30;;;1.90;;
57820;SDS011;43649;49.474;8.466;2022-07-10T01:44:22;3.88;;;1.95;;
57820;SDS011;43649;49.474;8.466;2022-07-10T01:46:48;5.10;;;2.03;;
57820;SDS011;43649;49.474;8.466;2022-07-10T01:49:13;5.07;;;1.70;;
57820;SDS011;43649;49.474;8.466;2022-07-10T01:51:39;4.43;;;1.92;;
57820;SDS011;43649;49.474;8.466;2022-07-10T01:54:04;4.10;;;1.52;;
57820;SDS011;43649;49.474;8.466;2022-07-10T01:56:31;3.50;;;1.33;;
57820;SDS011;43649;49.474;8.466;2022-07-10T01:58:56;3.30;;;2.40;;
57820;SDS011;43649;49.474;8.466;2022-07-10T02:01:22;2.00;;;1.42;;
57820;SDS011;43649;49.474;8.466;2022-07-10T02:03:47;2.38;;;2.17;;
57820;SDS011;43649;49.474;8.466;2022-07-10T02:06:13;1.70;;;1.52;;
57820;SDS011;43649;49.474;8.466;2022-07-10T02:08:39;8.23;;;1.40;;
57820;SDS011;43649;49.474;8.466;2022-07-10T02:11:05;3.83;;;1.75;;
57820;SDS011;43649;49.474;8.466;2022-07-10T02:13:32;3.53;;;1.55;;
57820;SDS011;43649;49.474;8.466;2022-07-10T02:15:57;1.80;;;1.70;;
57820;SDS011;43649;49.474;8.466;2022-07-10T02:18:23;2.58;;;1.67;;
57820;SDS011;43649;49.474;8.466;2022-07-10T02:20:50;4.18;;;1.42;;
57820;SDS011;43649;49.474;8.466;2022-07-10T02:23:16;2.53;;;1.42;;
57820;SDS011;43649;49.474;8.466;2022-07-10T02:25:41;4.32;;;1.35;;
57820;SDS011;43649;49.474;8.466;2022-07-10T02:28:07;3.92;;;1.35;;
57820;SDS011;43649;49.474;8.466;2022-07-10T02:30:35;7.82;;;1.27;;
57820;SDS011;43649;49.474;8.466;2022-07-10T02:33:00;6.13;;;1.50;;
57820;SDS011;43649;49.474;8.466;2022-07-10T02:35:26;3.25;;;1.55;;
57820;SDS011;43649;49.474;8.466;2022-07-10T02:37:51;7.32;;;1.30;;
57820;SDS011;43649;49.474;8.466;2022-07-10T02:40:17;4.88;;;1.42;;
57820;SDS011;43649;49.474;8.466;2022-07-10T02:42:42;2.95;;;1.38;;
57820;SDS011;43649;49.474;8.466;2022-07-10T02:45:08;2.75;;;1.13;;
57820;SDS011;43649;49.474;8.466;2022-07-10T02:47:35;2.38;;;1.52;;
57820;SDS011;43649;49.474;8.466;2022-07-10T02:50:00;5.13;;;1.30;;
57820;SDS011;43649;49.474;8.466;2022-07-10T02:52:26;2.17;;;1.48;;
57820;SDS011;43649;49.474;8.466;2022-07-10T02:54:51;3.90;;;1.60;;
57820;SDS011;43649;49.474;8.466;2022-07-10T02:57:17;4.63;;;1.40;;
57820;SDS011;43649;49.474;8.466;2022-07-10T02:59:42;4.63;;;1.65;;
57820;SDS011;43649;49.474;8.466;2022-07-10T03:02:08;3.70;;;1.70;;
57820;SDS011;43649;49.474;8.466;2022-07-10T03:04:35;5.53;;;1.42;;
57820;SDS011;43649;49.474;8.466;2022-07-10T03:07:00;7.85;;;2.88;;
57820;SDS011;43649;49.474;8.466;2022-07-10T03:09:26;2.75;;;1.50;;
57820;SDS011;43649;49.474;8.466;2022-07-10T03:11:51;1.90;;;1.48;;
57820;SDS011;43649;49.474;8.466;2022-07-10T03:14:17;9.15;;;1.80;;
57820;SDS011;43649;49.474;8.466;2022-07-10T03:16:42;10.27;;;2.15;;
57820;SDS011;43649;49.474;8.466;2022-07-10T03:19:08;2.40;;;1.75;;
57820;SDS011;43649;49.474;8.466;2022-07-10T03:21:35;6.13;;;1.50;;
57820;SDS011;43649;49.474;8.466;2022-07-10T03:24:00;4.65;;;1.70;;
57820;SDS011;43649;49.474;8.466;2022-07-10T03:26:26;8.38;;;1.98;;
57820;SDS011;43649;49.474;8.466;2022-07-10T03:28:51;5.38;;;1.60;;
57820;SDS011;43649;49.474;8.466;2022-07-10T03:31:17;7.00;;;1.65;;
57820;SDS011;43649;49.474;8.466;2022-07-10T03:33:42;3.08;;;1.48;;
57820;SDS011;43649;49.474;8.466;2022-07-10T03:36:08;3.60;;;1.52;;
57820;SDS011;43649;49.474;8.466;2022-07-10T03:38:35;3.80;;;1.85;;
57820;SDS011;43649;49.474;8.466;2022-07-10T03:41:00;3.78;;;1.60;;
57820;SDS011;43649;49.474;8.466;2022-07-10T03:43:25;5.25;;;1.25;;
57820;SDS011;43649;49.474;8.466;2022-07-10T03:45:51;2.85;;;1.55;;
57820;SDS011;43649;49.474;8.466;2022-07-10T03:48:16;5.47;;;1.60;;
57820;SDS011;43649;49.474;8.466;2022-07-10T03:50:42;3.20;;;1.27;;
57820;SDS011;43649;49.474;8.466;2022-07-10T03:53:07;4.82;;;1.52;;
57820;SDS011;43649;49.474;8.466;2022-07-10T03:55:34;2.90;;;1.60;;
57820;SDS011;43649;49.474;8.466;2022-07-10T03:58:00;4.60;;;1.38;;
57820;SDS011;43649;49.474;8.466;2022-07-10T04:00:26;8.55;;;1.63;;
57820;SDS011;43649;49.474;8.466;2022-07-10T04:02:55;3.05;;;1.13;;
57820;SDS011;43649;49.474;8.466;2022-07-10T04:05:21;9.00;;;1.58;;
57820;SDS011;43649;49.474;8.466;2022-07-10T04:07:46;7.90;;;1.48;;
57820;SDS011;43649;49.474;8.466;2022-07-10T04:10:11;4.20;;;1.40;;
57820;SDS011;43649;49.474;8.466;2022-07-10T04:12:38;9.32;;;1.48;;
57820;SDS011;43649;49.474;8.466;2022-07-10T04:15:04;2.78;;;1.88;;
57820;SDS011;43649;49.474;8.466;2022-07-10T04:17:30;3.35;;;1.83;;
57820;SDS011;43649;49.474;8.466;2022-07-10T04:19:56;4.57;;;1.58;;
57820;SDS011;43649;49.474;8.466;2022-07-10T04:22:21;2.20;;;1.38;;
57820;SDS011;43649;49.474;8.466;2022-07-10T04:24:47;3.05;;;1.40;;
57820;SDS011;43649;49.474;8.466;2022-07-10T04:27:12;1.10;;;1.10;;
57820;SDS011;43649;49.474;8.466;2022-07-10T04:29:39;3.90;;;1.30;;
57820;SDS011;43649;49.474;8.466;2022-07-10T04:32:04;4.18;;;1.55;;
57820;SDS011;43649;49.474;8.466;2022-07-10T04:34:30;5.00;;;1.40;;
57820;SDS011;43649;49.474;8.466;2022-07-10T04:36:56;4.30;;;1.48;;
57820;SDS011;43649;49.474;8.466;2022-07-10T04:39:21;4.72;;;1.98;;
57820;SDS011;43649;49.474;8.466;2022-07-10T04:41:47;2.55;;;1.42;;
57820;SDS011;43649;49.474;8.466;2022-07-10T04:44:12;4.57;;;1.30;;
57820;SDS011;43649;49.474;8.466;2022-07-10T04:46:39;8.02;;;1.67;;
57820;SDS011;43649;49.474;8.466;2022-07-10T04:49:04;6.32;;;2.05;;
57820;SDS011;43649;49.474;8.466;2022-07-10T04:51:30;5.20;;;1.40;;
57820;SDS011;43649;49.474;8.466;2022-07-10T04:53:55;3.08;;;1.10;;
57820;SDS011;43649;49.474;8.466;2022-07-10T04:56:21;2.58;;;1.00;;
57820;SDS011;43649;49.474;8.466;2022-07-10T04:58:46;6.03;;;1.65;;
57820;SDS011;43649;49.474;8.466;2022-07-10T05:01:11;5.47;;;1.25;;
57820;SDS011;43649;49.474;8.466;2022-07-10T05:03:38;2.05;;;1.35;;
57820;SDS011;43649;49.474;8.466;2022-07-10T05:06:04;4.50;;;1.42;;
57820;SDS011;43649;49.474;8.466;2022-07-10T05:08:29;3.85;;;1.20;;
57820;SDS011;43649;49.474;8.466;2022-07-10T05:10:55;3.47;;;1.23;;
57820;SDS011;43649;49.474;8.466;2022-07-10T05:13:20;8.77;;;1.50;;
57820;SDS011;43649;49.474;8.466;2022-07-10T05:15:46;6.93;;;1.15;;
57820;SDS011;43649;49.474;8.466;2022-07-10T05:18:12;7.50;;;2.00;;
57820;SDS011;43649;49.474;8.466;2022-07-10T05:20:38;5.10;;;1.65;;
57820;SDS011;43649;49.474;8.466;2022-07-10T05:23:04;1.38;;;1.10;;
57820;SDS011;43649;49.474;8.466;2022-07-10T05:25:29;1.20;;;1.10;;
57820;SDS011;43649;49.474;8.466;2022-07-10T05:27:55;4.63;;;1.33;;
57820;SDS011;43649;49.474;8.466;2022-07-10T05:30:20;3.13;;;0.90;;
57820;SDS011;43649;49.474;8.466;2022-07-10T05:32:46;7.18;;;1.48;;
57820;SDS011;43649;49.474;8.466;2022-07-10T05:35:11;5.07;;;1.02;;
57820;SDS011;43649;49.474;8.466;2022-07-10T05:37:40;1.35;;;1.15;;
57820;SDS011;43649;49.474;8.466;2022-07-10T05:40:06;7.20;;;1.05;;
57820;SDS011;43649;49.474;8.466;2022-07-10T05:42:33;7.45;;;1.65;;
57820;SDS011;43649;49.474;8.466;2022-07-10T05:44:58;3.67;;;1.13;;
57820;SDS011;43649;49.474;8.466;2022-07-10T05:47:24;9.25;;;1.35;;
57820;SDS011;43649;49.474;8.466;2022-07-10T05:49:49;4.95;;;1.83;;
57820;SDS011;43649;49.474;8.466;2022-07-10T05:52:15;3.38;;;1.00;;
57820;SDS011;43649;49.474;8.466;2022-07-10T05:54:41;5.93;;;1.27;;
57820;SDS011;43649;49.474;8.466;2022-07-10T05:57:07;6.63;;;1.40;;
57820;SDS011;43649;49.474;8.466;2022-07-10T05:59:33;5.57;;;0.93;;
57820;SDS011;43649;49.474;8.466;2022-07-10T06:01:58;4.25;;;0.82;;
57820;SDS011;43649;49.474;8.466;2022-07-10T06:04:24;5.07;;;1.08;;
57820;SDS011;43649;49.474;8.466;2022-07-10T06:06:49;2.80;;;1.10;;
57820;SDS011;43649;49.474;8.466;2022-07-10T06:09:15;3.55;;;0.95;;
57820;SDS011;43649;49.474;8.466;2022-07-10T06:11:41;5.10;;;1.17;;
57820;SDS011;43649;49.474;8.466;2022-07-10T06:14:07;2.88;;;1.60;;
57820;SDS011;43649;49.474;8.466;2022-07-10T06:16:32;5.65;;;0.93;;
57820;SDS011;43649;49.474;8.466;2022-07-10T06:18:58;5.22;;;0.88;;
57820;SDS011;43649;49.474;8.466;2022-07-10T06:21:23;6.03;;;0.95;;
57820;SDS011;43649;49.474;8.466;2022-07-10T06:23:49;2.80;;;1.17;;
57820;SDS011;43649;49.474;8.466;2022-07-10T06:26:14;3.00;;;1.13;;
57820;SDS011;43649;49.474;8.466;2022-07-10T06:28:41;2.53;;;0.70;;
57820;SDS011;43649;49.474;8.466;2022-07-10T06:31:06;6.00;;;0.90;;
57820;SDS011;43649;49.474;8.466;2022-07-10T06:33:32;2.15;;;1.02;;
57820;SDS011;43649;49.474;8.466;2022-07-10T06:35:57;5.82;;;1.00;;
57820;SDS011;43649;49.474;8.466;2022-07-10T06:38:23;2.58;;;0.90;;
57820;SDS011;43649;49.474;8.466;2022-07-10T06:40:48;4.07;;;1.20;;
57820;SDS011;43649;49.474;8.466;2022-07-10T06:43:15;5.07;;;1.13;;
57820;SDS011;43649;49.474;8.466;2022-07-10T06:45:42;2.50;;;1.15;;
57820;SDS011;43649;49.474;8.466;2022-07-10T06:48:07;3.58;;;0.98;;
57820;SDS011;43649;49.474;8.466;2022-07-10T06:50:33;0.65;;;0.65;;
57820;SDS011;43649;49.474;8.466;2022-07-10T06:52:59;6.45;;;1.00;;
57820;SDS011;43649;49.474;8.466;2022-07-10T06:55:25;0.82;;;0.80;;
57820;SDS011;43649;49.474;8.466;2022-07-10T06:57:51;3.05;;;0.90;;
57820;SDS011;43649;49.474;8.466;2022-07-10T07:00:16;0.90;;;0.77;;
57820;SDS011;43649;49.474;8.466;2022-07-10T07:02:43;0.98;;;0.45;;
57820;SDS011;43649;49.474;8.466;2022-07-10T07:05:09;4.38;;;0.68;;
57820;SDS011;43649;49.474;8.466;2022-07-10T07:07:34;4.25;;;0.68;;
57820;SDS011;43649;49.474;8.466;2022-07-10T07:10:00;3.80;;;0.90;;
57820;SDS011;43649;49.474;8.466;2022-07-10T07:12:26;2.47;;;0.80;;
57820;SDS011;43649;49.474;8.466;2022-07-10T07:14:51;1.95;;;0.90;;
57820;SDS011;43649;49.474;8.466;2022-07-10T07:17:16;0.90;;;0.60;;
57820;SDS011;43649;49.474;8.466;2022-07-10T07:19:43;4.72;;;0.73;;
57820;SDS011;43649;49.474;8.466;2022-07-10T07:22:09;12.68;;;0.98;;
57820;SDS011;43649;49.474;8.466;2022-07-10T07:24:34;3.15;;;0.65;;
57820;SDS011;43649;49.474;8.466;2022-07-10T07:27:02;1.67;;;0.60;;
57820;SDS011;43649;49.474;8.466;2022-07-10T07:29:28;1.58;;;0.70;;
57820;SDS011;43649;49.474;8.466;2022-07-10T07:31:54;1.70;;;0.52;;
57820;SDS011;43649;49.474;8.466;2022-07-10T07:34:19;2.63;;;0.60;;
57820;SDS011;43649;49.474;8.466;2022-07-10T07:36:46;5.15;;;0.50;;
57820;SDS011;43649;49.474;8.466;2022-07-10T07:39:11;3.10;;;1.15;;
57820;SDS011;43649;49.474;8.466;2022-07-10T07:41:37;1.65;;;0.45;;
57820;SDS011;43649;49.474;8.466;2022-07-10T07:44:02;3.33;;;0.40;;
57820;SDS011;43649;49.474;8.466;2022-07-10T07:46:28;3.60;;;1.83;;
57820;SDS011;43649;49.474;8.466;2022-07-10T07:48:53;0.38;;;0.38;;
57820;SDS011;43649;49.474;8.466;2022-07-10T07:51:19;2.17;;;0.50;;
57820;SDS011;43649;49.474;8.466;2022-07-10T07:53:46;2.08;;;0.60;;
57820;SDS011;43649;49.474;8.466;2022-07-10T07:56:11;1.77;;;0.40;;
57820;SDS011;43649;49.474;8.466;2022-07-10T07:58:37;1.02;;;0.50;;
57820;SDS011;43649;49.474;8.466;2022-07-10T08:01:02;7.40;;;0.68;;
57820;SDS011;43649;49.474;8.466;2022-07-10T08:03:28;5.47;;;0.80;;
57820;SDS011;43649;49.474;8.466;2022-07-10T08:05:53;3.25;;;0.73;;
57820;SDS011;43649;49.474;8.466;2022-07-10T08:08:19;2.67;;;0.60;;
57820;SDS011;43649;49.474;8.466;2022-07-10T08:10:45;1.33;;;0.50;;
57820;SDS011;43649;49.474;8.466;2022-07-10T08:13:11;1.52;;;0.50;;
57820;SDS011;43649;49.474;8.466;2022-07-10T08:15:36;1.50;;;0.60;;
57820;SDS011;43649;49.474;8.466;2022-07-10T08:18:02;3.63;;;0.63;;
57820;SDS011;43649;49.474;8.466;2022-07-10T08:20:28;0.82;;;0.30;;
57820;SDS011;43649;49.474;8.466;2022-07-10T08:22:53;1.13;;;0.32;;
57820;SDS011;43649;49.474;8.466;2022-07-10T08:25:19;1.42;;;0.40;;
57820;SDS011;43649;49.474;8.466;2022-07-10T08:27:46;6.63;;;0.50;;
57820;SDS011;43649;49.474;8.466;2022-07-10T08:30:12;1.83;;;0.60;;
57820;SDS011;43649;49.474;8.466;2022-07-10T08:32:38;1.38;;;0.40;;
57820;SDS011;43649;49.474;8.466;2022-07-10T08:35:04;3.40;;;0.50;;
57820;SDS011;43649;49.474;8.466;2022-07-10T08:37:36;3.85;;;0.85;;
57820;SDS011;43649;49.474;8.466;2022-07-10T08:40:02;3.47;;;0.63;;
57820;SDS011;43649;49.474;8.466;2022-07-10T08:42:28;2.15;;;1.05;;
57820;SDS011;43649;49.474;8.466;2022-07-10T08:44:58;4.82;;;0.70;;
57820;SDS011;43649;49.474;8.466;2022-07-10T08:47:24;4.00;;;0.47;;
57820;SDS011;43649;49.474;8.466;2022-07-10T08:49:50;3.42;;;0.50;;
57820;SDS011;43649;49.474;8.466;2022-07-10T08:52:20;5.53;;;0.70;;
57820;SDS011;43649;49.474;8.466;2022-07-10T08:57:16;2.58;;;0.70;;
57820;SDS011;43649;49.474;8.466;2022-07-10T08:59:43;1.90;;;0.65;;
57820;SDS011;43649;49.474;8.466;2022-07-10T09:02:10;3.63;;;0.93;;
57820;SDS011;43649;49.474;8.466;2022-07-10T09:04:35;3.00;;;0.70;;
57820;SDS011;43649;49.474;8.466;2022-07-10T09:07:01;3.72;;;0.50;;
57820;SDS011;43649;49.474;8.466;2022-07-10T09:09:26;2.53;;;0.85;;
57820;SDS011;43649;49.474;8.466;2022-07-10T09:11:54;3.67;;;0.65;;
57820;SDS011;43649;49.474;8.466;2022-07-10T09:14:20;2.05;;;0.52;;
57820;SDS011;43649;49.474;8.466;2022-07-10T09:16:46;0.52;;;0.40;;
57820;SDS011;43649;49.474;8.466;2022-07-10T09:19:17;1.83;;;0.47;;
57820;SDS011;43649;49.474;8.466;2022-07-10T09:21:44;2.45;;;0.52;;
57820;SDS011;43649;49.474;8.466;2022-07-10T09:24:10;0.90;;;0.60;;
57820;SDS011;43649;49.474;8.466;2022-07-10T09:26:36;1.08;;;0.35;;
57820;SDS011;43649;49.474;8.466;2022-07-10T09:29:05;1.30;;;0.43;;
57820;SDS011;43649;49.474;8.466;2022-07-10T09:31:31;2.72;;;0.90;;
57820;SDS011;43649;49.474;8.466;2022-07-10T09:34:13;2.17;;;0.50;;
57820;SDS011;43649;49.474;8.466;2022-07-10T09:36:40;3.78;;;0.60;;
57820;SDS011;43649;49.474;8.466;2022-07-10T09:39:05;4.60;;;0.70;;
57820;SDS011;43649;49.474;8.466;2022-07-10T09:41:30;2.25;;;0.50;;
57820;SDS011;43649;49.474;8.466;2022-07-10T09:43:56;0.75;;;0.30;;
57820;SDS011;43649;49.474;8.466;2022-07-10T09:46:24;4.57;;;0.60;;
57820;SDS011;43649;49.474;8.466;2022-07-10T09:49:00;5.28;;;0.30;;
57820;SDS011;43649;49.474;8.466;2022-07-10T09:51:27;2.05;;;0.50;;
57820;SDS011;43649;49.474;8.466;2022-07-10T09:53:56;1.42;;;0.30;;
57820;SDS011;43649;49.474;8.466;2022-07-10T09:56:25;0.77;;;0.30;;
57820;SDS011;43649;49.474;8.466;2022-07-10T09:58:53;1.10;;;0.75;;
57820;SDS011;43649;49.474;8.466;2022-07-10T10:01:24;4.95;;;0.65;;
57820;SDS011;43649;49.474;8.466;2022-07-10T10:03:52;3.58;;;0.40;;
57820;SDS011;43649;49.474;8.466;2022-07-10T10:06:19;11.43;;;0.70;;
57820;SDS011;43649;49.474;8.466;2022-07-10T10:08:48;2.83;;;0.60;;
57820;SDS011;43649;49.474;8.466;2022-07-10T10:11:23;3.97;;;0.65;;
57820;SDS011;43649;49.474;8.466;2022-07-10T10:13:50;1.25;;;0.17;;
57820;SDS011;43649;49.474;8.466;2022-07-10T10:16:17;0.55;;;0.32;;
57820;SDS011;43649;49.474;8.466;2022-07-10T10:18:44;1.92;;;0.65;;
57820;SDS011;43649;49.474;8.466;2022-07-10T10:21:11;1.23;;;0.40;;
57820;SDS011;43649;49.474;8.466;2022-07-10T10:23:37;1.92;;;0.47;;
57820;SDS011;43649;49.474;8.466;2022-07-10T10:26:02;2.78;;;0.77;;
57820;SDS011;43649;49.474;8.466;2022-07-10T10:28:29;3.55;;;0.57;;
57820;SDS011;43649;49.474;8.466;2022-07-10T10:30:59;4.88;;;0.50;;
57820;SDS011;43649;49.474;8.466;2022-07-10T10:33:41;3.30;;;0.50;;
57820;SDS011;43649;49.474;8.466;2022-07-10T10:36:08;1.75;;;0.65;;
57820;SDS011;43649;49.474;8.466;2022-07-10T10:41:28;4.85;;;0.77;;
57820;SDS011;43649;49.474;8.466;2022-07-10T10:46:56;3.85;;;0.70;;
57820;SDS011;43649;49.474;8.466;2022-07-10T10:49:23;2.30;;;0.68;;
57820;SDS011;43649;49.474;8.466;2022-07-10T10:51:56;2.30;;;0.60;;
57820;SDS011;43649;49.474;8.466;2022-07-10T10:54:22;2.88;;;0.50;;
57820;SDS011;43649;49.474;8.466;2022-07-10T10:56:53;0.85;;;0.50;;
57820;SDS011;43649;49.474;8.466;2022-07-10T10:59:47;1.75;;;0.68;;
57820;SDS011;43649;49.474;8.466;2022-07-10T11:02:22;3.75;;;0.90;;
57820;SDS011;43649;49.474;8.466;2022-07-10T11:04:50;2.17;;;0.60;;
57820;SDS011;43649;49.474;8.466;2022-07-10T11:10:27;2.80;;;0.95;;
57820;SDS011;43649;49.474;8.466;2022-07-10T11:12:57;6.43;;;1.15;;
57820;SDS011;43649;49.474;8.466;2022-07-10T11:15:25;9.07;;;0.80;;
57820;SDS011;43649;49.474;8.466;2022-07-10T11:17:51;2.75;;;0.82;;
57820;SDS011;43649;49.474;8.466;2022-07-10T11:20:17;4.32;;;1.35;;
57820;SDS011;43649;49.474;8.466;2022-07-10T11:22:45;2.55;;;0.75;;
57820;SDS011;43649;49.474;8.466;2022-07-10T11:25:24;3.40;;;0.70;;
57820;SDS011;43649;49.474;8.466;2022-07-10T11:28:06;4.45;;;0.90;;
57820;SDS011;43649;49.474;8.466;2022-07-10T11:30:44;2.78;;;0.65;;
57820;SDS011;43649;49.474;8.466;2022-07-10T11:33:10;3.65;;;0.77;;
57820;SDS011;43649;49.474;8.466;2022-07-10T11:35:37;1.70;;;0.70;;
57820;SDS011;43649;49.474;8.466;2022-07-10T11:38:03;2.35;;;0.77;;
57820;SDS011;43649;49.474;8.466;2022-07-10T11:40:28;2.10;;;0.80;;
57820;SDS011;43649;49.474;8.466;2022-07-10T11:42:54;5.40;;;0.80;;
57820;SDS011;43649;49.474;8.466;2022-07-10T11:45:22;10.38;;;1.10;;
57820;SDS011;43649;49.474;8.466;2022-07-10T11:47:52;2.65;;;0.70;;
57820;SDS011;43649;49.474;8.466;2022-07-10T11:50:18;1.52;;;0.90;;
57820;SDS011;43649;49.474;8.466;2022-07-10T11:52:45;1.38;;;0.90;;
57820;SDS011;43649;49.474;8.466;2022-07-10T11:55:14;4.85;;;0.98;;
57820;SDS011;43649;49.474;8.466;2022-07-10T11:57:40;20.98;;;1.00;;
57820;SDS011;43649;49.474;8.466;2022-07-10T12:00:06;2.00;;;1.05;;
57820;SDS011;43649;49.474;8.466;2022-07-10T12:02:45;3.67;;;0.60;;
57820;SDS011;43649;49.474;8.466;2022-07-10T12:07:59;3.50;;;1.15;;
57820;SDS011;43649;49.474;8.466;2022-07-10T12:10:25;2.72;;;0.95;;
57820;SDS011;43649;49.474;8.466;2022-07-10T12:12:51;2.90;;;1.17;;
57820;SDS011;43649;49.474;8.466;2022-07-10T12:15:30;5.97;;;0.70;;
57820;SDS011;43649;49.474;8.466;2022-07-10T12:17:56;2.10;;;0.80;;
57820;SDS011;43649;49.474;8.466;2022-07-10T12:20:21;4.22;;;0.70;;
57820;SDS011;43649;49.474;8.466;2022-07-10T12:22:48;1.42;;;0.77;;
57820;SDS011;43649;49.474;8.466;2022-07-10T12:25:13;4.88;;;0.98;;
57820;SDS011;43649;49.474;8.466;2022-07-10T12:27:39;2.25;;;0.60;;
57820;SDS011;43649;49.474;8.466;2022-07-10T12:30:05;3.20;;;0.88;;
57820;SDS011;43649;49.474;8.466;2022-07-10T12:32:31;2.85;;;0.75;;
57820;SDS011;43649;49.474;8.466;2022-07-10T12:34:58;1.60;;;0.80;;
57820;SDS011;43649;49.474;8.466;2022-07-10T12:37:24;3.35;;;1.08;;
57820;SDS011;43649;49.474;8.466;2022-07-10T12:39:51;3.97;;;1.00;;
57820;SDS011;43649;49.474;8.466;2022-07-10T12:42:24;3.83;;;0.95;;
57820;SDS011;43649;49.474;8.466;2022-07-10T12:44:50;3.13;;;0.98;;
57820;SDS011;43649;49.474;8.466;2022-07-10T12:47:16;2.72;;;1.10;;
57820;SDS011;43649;49.474;8.466;2022-07-10T12:49:53;1.00;;;0.80;;
57820;SDS011;43649;49.474;8.466;2022-07-10T12:52:20;5.90;;;1.10;;
57820;SDS011;43649;49.474;8.466;2022-07-10T12:54:47;2.33;;;0.68;;
57820;SDS011;43649;49.474;8.466;2022-07-10T12:57:14;3.92;;;1.00;;
57820;SDS011;43649;49.474;8.466;2022-07-10T12:59:39;4.03;;;0.95;;
57820;SDS011;43649;49.474;8.466;2022-07-10T13:02:15;2.53;;;1.00;;
57820;SDS011;43649;49.474;8.466;2022-07-10T13:04:50;3.20;;;1.10;;
57820;SDS011;43649;49.474;8.466;2022-07-10T13:07:17;1.10;;;0.95;;
57820;SDS011;43649;49.474;8.466;2022-07-10T13:09:42;3.17;;;1.05;;
57820;SDS011;43649;49.474;8.466;2022-07-10T13:12:08;5.65;;;1.35;;
57820;SDS011;43649;49.474;8.466;2022-07-10T13:14:34;2.88;;;0.88;;
57820;SDS011;43649;49.474;8.466;2022-07-10T13:17:00;3.22;;;1.02;;
57820;SDS011;43649;49.474;8.466;2022-07-10T13:19:25;4.93;;;0.93;;
57820;SDS011;43649;49.474;8.466;2022-07-10T13:21:51;2.33;;;0.77;;
57820;SDS011;43649;49.474;8.466;2022-07-10T13:24:17;4.38;;;1.25;;
57820;SDS011;43649;49.474;8.466;2022-07-10T13:26:42;2.22;;;0.70;;
57820;SDS011;43649;49.474;8.466;2022-07-10T13:29:08;3.67;;;0.95;;
57820;SDS011;43649;49.474;8.466;2022-07-10T13:31:35;4.90;;;1.00;;
57820;SDS011;43649;49.474;8.466;2022-07-10T13:34:00;7.05;;;0.80;;
57820;SDS011;43649;49.474;8.466;2022-07-10T13:36:26;2.75;;;0.93;;
57820;SDS011;43649;49.474;8.466;2022-07-10T13:38:51;1.92;;;0.88;;
57820;SDS011;43649;49.474;8.466;2022-07-10T13:41:17;0.85;;;0.65;;
57820;SDS011;43649;49.474;8.466;2022-07-10T13:43:43;3.83;;;0.93;;
57820;SDS011;43649;49.474;8.466;2022-07-10T13:46:09;5.78;;;1.20;;
57820;SDS011;43649;49.474;8.466;2022-07-10T13:48:35;0.80;;;0.55;;
57820;SDS011;43649;49.474;8.466;2022-07-10T13:51:01;3.40;;;0.95;;
57820;SDS011;43649;49.474;8.466;2022-07-10T13:53:26;1.08;;;0.70;;
57820;SDS011;43649;49.474;8.466;2022-07-10T13:55:52;1.30;;;0.80;;
57820;SDS011;43649;49.474;8.466;2022-07-10T13:58:17;2.97;;;0.70;;
57820;SDS011;43649;49.474;8.466;2022-07-10T14:00:43;3.10;;;0.80;;
57820;SDS011;43649;49.474;8.466;2022-07-10T14:03:09;2.90;;;1.08;;
57820;SDS011;43649;49.474;8.466;2022-07-10T14:05:36;2.35;;;0.85;;
57820;SDS011;43649;49.474;8.466;2022-07-10T14:08:02;3.40;;;0.77;;
57820;SDS011;43649;49.474;8.466;2022-07-10T14:10:28;5.68;;;0.80;;
57820;SDS011;43649;49.474;8.466;2022-07-10T14:12:54;6.22;;;1.10;;
57820;SDS011;43649;49.474;8.466;2022-07-10T14:15:20;1.63;;;1.13;;
57820;SDS011;43649;49.474;8.466;2022-07-10T14:17:46;5.70;;;1.10;;
57820;SDS011;43649;49.474;8.466;2022-07-10T14:20:12;1.05;;;0.68;;
57820;SDS011;43649;49.474;8.466;2022-07-10T14:22:39;6.65;;;1.02;;
57820;SDS011;43649;49.474;8.466;2022-07-10T14:25:05;6.13;;;0.98;;
57820;SDS011;43649;49.474;8.466;2022-07-10T14:27:32;2.53;;;0.68;;
57820;SDS011;43649;49.474;8.466;2022-07-10T14:29:57;2.53;;;0.80;;
57820;SDS011;43649;49.474;8.466;2022-07-10T14:32:23;0.88;;;0.77;;
57820;SDS011;43649;49.474;8.466;2022-07-10T14:34:48;2.30;;;0.52;;
57820;SDS011;43649;49.474;8.466;2022-07-10T14:37:14;2.92;;;0.70;;
57820;SDS011;43649;49.474;8.466;2022-07-10T14:39:41;2.25;;;0.80;;
57820;SDS011;43649;49.474;8.466;2022-07-10T14:42:06;4.38;;;0.82;;
57820;SDS011;43649;49.474;8.466;2022-07-10T14:44:32;1.77;;;0.52;;
57820;SDS011;43649;49.474;8.466;2022-07-10T14:46:58;2.40;;;0.80;;
57820;SDS011;43649;49.474;8.466;2022-07-10T14:49:23;2.33;;;0.80;;
57820;SDS011;43649;49.474;8.466;2022-07-10T14:51:49;1.45;;;0.60;;
57820;SDS011;43649;49.474;8.466;2022-07-10T14:54:14;2.22;;;0.50;;
57820;SDS011;43649;49.474;8.466;2022-07-10T14:56:41;4.57;;;0.63;;
57820;SDS011;43649;49.474;8.466;2022-07-10T14:59:06;7.82;;;0.88;;